createdAt,value
2019-01-09T00:01:38.679Z,10.89
2019-01-09T00:04:10.689Z,10.15
2019-01-09T00:06:41.054Z,10.51
2019-01-09T00:09:11.446Z,10.02
2019-01-09T00:11:41.732Z,10.01
2019-01-09T00:14:12.682Z,8.90
2019-01-09T00:16:42.965Z,9.26
2019-01-09T00:19:14.736Z,9.51
2019-01-09T00:21:45.121Z,9.98
2019-01-09T00:24:16.012Z,9.71
2019-01-09T00:26:47.580Z,9.88
2019-01-09T00:29:18.078Z,10.02
2019-01-09T00:31:48.576Z,10.22
2019-01-09T00:34:20.843Z,10.43
2019-01-09T00:36:51.171Z,10.42
2019-01-09T00:39:21.452Z,10.83
2019-01-09T00:41:51.757Z,10.76
2019-01-09T00:44:22.557Z,10.82
2019-01-09T00:46:52.920Z,11.10
2019-01-09T00:49:23.537Z,11.02
2019-01-09T00:51:54.455Z,10.68
2019-01-09T00:54:25.111Z,10.55
2019-01-09T00:56:55.538Z,10.54
2019-01-09T00:59:25.844Z,10.51
2019-01-09T01:02:23.345Z,10.46
2019-01-09T01:05:45.757Z,10.95
2019-01-09T01:08:44.176Z,11.29
2019-01-09T01:11:41.869Z,11.06
2019-01-09T01:14:51.739Z,10.83
2019-01-09T01:17:53.937Z,10.94
2019-01-09T01:20:40.008Z,10.77
2019-01-09T01:24:06.955Z,10.74
2019-01-09T01:26:52.283Z,10.61
2019-01-09T01:30:06.650Z,10.15
2019-01-09T01:32:48.647Z,10.59
2019-01-09T01:36:07.998Z,10.61
2019-01-09T01:39:17.338Z,10.65
2019-01-09T01:42:26.583Z,10.78
2019-01-09T01:45:29.051Z,10.71
2019-01-09T01:48:26.521Z,10.95
2019-01-09T01:51:28.096Z,10.24
2019-01-09T01:54:27.175Z,10.74
2019-01-09T01:57:14.949Z,10.80
2019-01-09T01:59:54.693Z,10.45
2019-01-09T02:02:48.746Z,10.60
2019-01-09T02:05:28.776Z,9.98
2019-01-09T02:08:27.319Z,10.18
2019-01-09T02:11:43.325Z,10.54
2019-01-09T02:14:56.432Z,10.20
2019-01-09T02:18:10.972Z,10.36
2019-01-09T02:21:29.888Z,9.86
2019-01-09T02:24:56.643Z,10.26
2019-01-09T02:27:53.967Z,9.85
2019-01-09T02:31:10.615Z,10.28
2019-01-09T02:33:40.932Z,10.47
2019-01-09T02:36:13.624Z,10.42
2019-01-09T02:38:43.216Z,9.93
2019-01-09T02:41:14.111Z,9.86
2019-01-09T02:43:44.482Z,9.94
2019-01-09T02:46:14.769Z,9.98
2019-01-09T02:48:45.071Z,10.59
2019-01-09T02:51:15.784Z,10.50
2019-01-09T02:53:46.500Z,10.58
2019-01-09T02:56:17.037Z,10.43
2019-01-09T02:58:47.468Z,10.54
2019-01-09T03:01:18.382Z,10.56
2019-01-09T03:03:48.737Z,9.65
2019-01-09T03:06:23.193Z,10.00
2019-01-09T03:08:52.311Z,9.54
2019-01-09T03:11:24.248Z,9.72
2019-01-09T03:13:55.297Z,9.50
2019-01-09T03:16:25.559Z,9.11
2019-01-09T03:18:55.897Z,9.73
2019-01-09T03:21:26.748Z,9.32
2019-01-09T03:23:57.641Z,9.08
2019-01-09T03:26:27.922Z,8.97
2019-01-09T03:28:58.554Z,9.35
2019-01-09T03:31:30.405Z,9.75
2019-01-09T03:34:00.794Z,9.80
2019-01-09T03:36:32.951Z,10.00
2019-01-09T03:39:04.003Z,10.00
2019-01-09T03:41:35.055Z,9.50
2019-01-09T03:44:05.427Z,9.59
2019-01-09T03:46:35.743Z,9.61
2019-01-09T03:49:06.152Z,9.80
2019-01-09T03:51:36.915Z,9.81
2019-01-09T03:54:07.735Z,9.14
2019-01-09T03:56:37.998Z,9.57
2019-01-09T03:59:08.303Z,9.87
2019-01-09T04:01:38.718Z,10.09
2019-01-09T04:04:09.616Z,10.00
2019-01-09T04:06:42.061Z,10.14
2019-01-09T04:09:12.419Z,10.18
2019-01-09T04:11:42.696Z,9.95
2019-01-09T04:14:12.989Z,9.87
2019-01-09T04:16:43.341Z,9.90
2019-01-09T04:19:15.689Z,9.26
2019-01-09T04:21:46.344Z,9.19
2019-01-09T04:24:16.631Z,9.60
2019-01-09T04:26:46.931Z,9.83
2019-01-09T04:29:17.728Z,9.19
2019-01-09T04:31:49.551Z,9.56
2019-01-09T04:34:19.881Z,10.02
2019-01-09T04:36:51.887Z,9.33
2019-01-09T04:39:22.994Z,9.67
2019-01-09T04:41:53.393Z,9.50
2019-01-09T04:44:23.720Z,10.05
2019-01-09T04:46:54.105Z,9.69
2019-01-09T04:49:24.472Z,10.17
2019-01-09T04:51:55.309Z,10.46
2019-01-09T04:54:25.612Z,10.39
2019-01-09T04:56:57.218Z,10.13
2019-01-09T04:59:27.494Z,10.19
2019-01-09T05:01:58.323Z,10.67
2019-01-09T05:04:28.584Z,10.71
2019-01-09T05:07:00.622Z,10.81
2019-01-09T05:09:32.266Z,10.61
2019-01-09T05:12:03.478Z,10.11
2019-01-09T05:14:33.883Z,9.80
2019-01-09T05:17:04.655Z,9.54
2019-01-09T05:19:34.936Z,10.04
2019-01-09T05:22:05.907Z,10.35
2019-01-09T05:24:36.197Z,9.70
2019-01-09T05:27:06.471Z,9.42
2019-01-09T05:29:37.250Z,9.72
2019-01-09T05:32:09.284Z,9.76
2019-01-09T05:34:39.578Z,9.98
2019-01-09T05:37:10.110Z,10.22
2019-01-09T05:39:40.581Z,9.97
2019-01-09T05:42:11.372Z,10.12
2019-01-09T05:44:42.215Z,9.98
2019-01-09T05:47:12.479Z,9.89
2019-01-09T05:49:42.868Z,10.09
2019-01-09T05:52:13.760Z,10.35
2019-01-09T05:54:44.154Z,10.23
2019-01-09T05:57:14.460Z,10.20
2019-01-09T05:59:45.968Z,10.39
2019-01-09T06:02:16.906Z,10.06
2019-01-09T06:04:47.345Z,9.76
2019-01-09T06:07:18.577Z,9.83
2019-01-09T06:09:49.272Z,10.34
2019-01-09T06:12:20.222Z,9.86
2019-01-09T06:14:51.024Z,10.18
2019-01-09T06:17:21.351Z,10.20
2019-01-09T06:19:51.671Z,10.34
2019-01-09T06:22:22.090Z,10.27
2019-01-09T06:24:52.894Z,10.42
2019-01-09T06:27:23.408Z,10.55
2019-01-09T06:29:53.686Z,10.54
2019-01-09T06:32:25.883Z,10.68
2019-01-09T06:34:56.596Z,10.45
2019-01-09T06:37:27.772Z,10.78
2019-01-09T06:39:58.201Z,10.58
2019-01-09T06:42:28.590Z,9.99
2019-01-09T06:44:59.387Z,10.13
2019-01-09T06:47:31.223Z,10.31
2019-01-09T06:50:01.483Z,10.55
2019-01-09T06:52:31.889Z,10.35
2019-01-09T06:55:02.803Z,10.27
2019-01-09T06:57:33.077Z,10.08
2019-01-09T07:00:03.396Z,10.23
2019-01-09T07:02:35.228Z,10.17
2019-01-09T07:05:06.371Z,10.37
2019-01-09T07:07:36.728Z,10.17
2019-01-09T07:10:07.532Z,10.25
2019-01-09T07:12:37.907Z,10.68
2019-01-09T07:15:11.762Z,10.91
2019-01-09T07:17:42.398Z,10.82
2019-01-09T07:20:12.679Z,10.91
2019-01-09T07:22:43.070Z,10.97
2019-01-09T07:25:13.823Z,11.11
2019-01-09T07:27:44.115Z,11.23
2019-01-09T07:30:14.516Z,11.19
2019-01-09T07:32:46.018Z,10.73
2019-01-09T07:35:16.854Z,10.75
2019-01-09T07:37:47.292Z,10.70
2019-01-09T07:40:18.862Z,10.37
2019-01-09T07:42:50.633Z,10.06
2019-01-09T07:45:21.371Z,10.19
2019-01-09T07:47:52.869Z,10.21
2019-01-09T07:50:23.172Z,10.08
2019-01-09T07:52:53.623Z,10.09
2019-01-09T07:55:23.951Z,10.10
2019-01-09T07:57:54.762Z,10.07
2019-01-09T08:00:26.481Z,10.12
2019-01-09T08:02:56.766Z,10.15
2019-01-09T08:05:28.229Z,10.21
2019-01-09T08:07:59.144Z,10.06
2019-01-09T08:10:29.441Z,9.88
2019-01-09T08:12:59.812Z,9.94
2019-01-09T08:15:30.277Z,9.89
2019-01-09T08:18:00.951Z,9.80
2019-01-09T08:20:31.410Z,9.38
2019-01-09T08:23:01.959Z,9.08
2019-01-09T08:25:32.300Z,9.23
2019-01-09T08:28:03.082Z,9.55
2019-01-09T08:30:33.425Z,9.89
2019-01-09T08:33:05.101Z,9.62
2019-01-09T08:35:35.412Z,9.34
2019-01-09T08:38:07.375Z,9.69
2019-01-09T08:40:37.706Z,9.84
2019-01-09T08:43:08.435Z,10.21
2019-01-09T08:45:38.744Z,9.96
2019-01-09T08:48:09.579Z,9.43
2019-01-09T08:50:39.942Z,9.07
2019-01-09T08:53:11.504Z,9.83
2019-01-09T08:55:41.783Z,10.01
2019-01-09T08:58:12.719Z,10.17
2019-01-09T09:00:43.080Z,10.09
2019-01-09T09:03:13.504Z,9.83
2019-01-09T09:05:44.967Z,10.09
2019-01-09T09:08:17.164Z,10.02
2019-01-09T09:10:47.518Z,9.86
2019-01-09T09:13:38.376Z,9.87
2019-01-09T09:16:10.521Z,9.75
2019-01-09T09:18:41.502Z,10.55
2019-01-09T09:21:11.776Z,10.74
2019-01-09T09:23:43.635Z,10.58
2019-01-09T09:26:13.934Z,10.91
2019-01-09T09:28:45.043Z,11.15
2019-01-09T09:31:15.422Z,11.34
2019-01-09T09:33:48.092Z,11.65
2019-01-09T09:36:18.376Z,11.49
2019-01-09T09:38:51.058Z,11.77
2019-01-09T09:41:21.345Z,11.93
2019-01-09T09:43:51.626Z,11.59
2019-01-09T09:46:21.917Z,11.31
2019-01-09T09:48:53.215Z,11.23
2019-01-09T09:51:23.523Z,11.22
2019-01-09T09:53:53.831Z,10.95
2019-01-09T09:56:24.243Z,11.55
2019-01-09T09:58:56.170Z,11.47
2019-01-09T10:01:26.982Z,11.99
2019-01-09T10:03:57.243Z,12.15
2019-01-09T10:06:27.513Z,11.83
2019-01-09T10:08:57.819Z,12.03
2019-01-09T10:11:28.550Z,11.68
2019-01-09T10:13:59.923Z,11.73
2019-01-09T10:16:30.726Z,11.58
2019-01-09T10:19:01.106Z,11.62
2019-01-09T10:21:31.401Z,11.81
2019-01-09T10:24:02.277Z,11.43
2019-01-09T10:26:32.701Z,11.71
2019-01-09T10:29:04.320Z,11.86
2019-01-09T10:31:34.621Z,11.67
2019-01-09T10:34:07.068Z,11.74
2019-01-09T10:36:37.496Z,11.69
2019-01-09T10:39:10.149Z,11.84
2019-01-09T10:41:40.448Z,11.31
2019-01-09T10:44:18.767Z,11.39
2019-01-09T10:46:43.868Z,11.58
2019-01-09T10:49:14.191Z,11.52
2019-01-09T10:51:44.496Z,11.50
2019-01-09T10:54:15.459Z,12.20
2019-01-09T10:56:45.749Z,11.94
2019-01-09T10:59:16.726Z,13.04
2019-01-09T11:01:47.031Z,13.48
2019-01-09T11:04:17.824Z,14.12
2019-01-09T11:06:48.116Z,13.47
2019-01-09T11:09:18.397Z,13.35
2019-01-09T11:11:48.790Z,13.19
2019-01-09T11:14:19.473Z,13.08
2019-01-09T11:16:51.098Z,12.80
2019-01-09T11:19:24.565Z,13.67
2019-01-09T11:21:56.404Z,13.90
2019-01-09T11:24:27.365Z,13.36
2019-01-09T11:26:57.811Z,13.76
2019-01-09T11:29:28.118Z,13.16
2019-01-09T11:31:58.442Z,11.98
2019-01-09T11:34:32.100Z,11.94
2019-01-09T11:37:02.408Z,12.36
2019-01-09T11:39:32.696Z,12.06
2019-01-09T11:42:02.993Z,11.86
2019-01-09T11:44:33.755Z,11.48
2019-01-09T11:47:04.060Z,11.46
2019-01-09T11:49:34.372Z,10.91
2019-01-09T11:52:06.174Z,11.14
2019-01-09T11:54:37.015Z,10.99
2019-01-09T11:57:07.336Z,11.16
2019-01-09T11:59:37.631Z,11.12
2019-01-09T12:02:07.938Z,11.23
2019-01-09T12:04:38.842Z,11.02
2019-01-09T12:07:10.500Z,11.43
2019-01-09T12:09:40.843Z,12.08
2019-01-09T12:12:11.209Z,12.10
2019-01-09T12:14:41.944Z,11.66
2019-01-09T12:17:12.245Z,11.14
2019-01-09T12:19:42.572Z,11.17
2019-01-09T12:22:12.882Z,10.96
2019-01-09T12:24:43.661Z,11.09
2019-01-09T12:27:13.928Z,11.38
2019-01-09T12:29:44.262Z,11.77
2019-01-09T12:32:15.428Z,11.73
2019-01-09T12:34:47.653Z,11.88
2019-01-09T12:37:17.979Z,11.00
2019-01-09T12:39:48.425Z,11.10
2019-01-09T12:42:18.708Z,10.95
2019-01-09T12:44:49.485Z,11.22
2019-01-09T12:47:19.947Z,11.36
2019-01-09T12:49:50.279Z,11.87
2019-01-09T12:52:20.590Z,11.20
2019-01-09T12:54:59.482Z,11.89
2019-01-09T12:57:30.247Z,12.06
2019-01-09T13:00:00.683Z,11.53
2019-01-09T13:02:31.235Z,11.97
2019-01-09T13:05:02.054Z,12.34
2019-01-09T13:07:32.333Z,12.47
2019-01-09T13:10:02.612Z,12.56
2019-01-09T13:12:32.943Z,11.87
2019-01-09T13:15:03.776Z,11.82
2019-01-09T13:17:34.258Z,11.30
2019-01-09T13:20:05.576Z,11.10
2019-01-09T13:22:35.886Z,11.30
2019-01-09T13:25:07.224Z,10.46
2019-01-09T13:27:37.549Z,10.41
2019-01-09T13:30:16.575Z,10.45
2019-01-09T13:32:47.025Z,10.83
2019-01-09T13:35:19.109Z,11.09
2019-01-09T13:37:49.435Z,11.00
2019-01-09T13:40:20.810Z,10.42
2019-01-09T13:42:51.152Z,10.78
2019-01-09T13:45:26.767Z,11.16
2019-01-09T13:47:57.051Z,10.93
2019-01-09T13:50:27.338Z,10.67
2019-01-09T13:52:57.704Z,10.91
2019-01-09T13:55:28.499Z,11.13
2019-01-09T13:57:58.845Z,10.92
2019-01-09T14:00:29.127Z,11.28
2019-01-09T14:02:59.395Z,11.09
2019-01-09T14:05:29.698Z,11.47
2019-01-09T14:08:00.541Z,11.05
2019-01-09T14:10:30.835Z,10.63
2019-01-09T14:13:01.091Z,10.44
2019-01-09T14:15:31.414Z,10.49
2019-01-09T14:18:01.792Z,10.55
2019-01-09T14:20:32.552Z,11.25
2019-01-09T14:23:03.828Z,11.22
2019-01-09T14:25:34.454Z,10.87
2019-01-09T14:28:04.893Z,10.67
2019-01-09T14:30:35.629Z,10.79
2019-01-09T14:33:05.969Z,11.05
2019-01-09T14:35:36.478Z,11.22
2019-01-09T14:38:07.292Z,11.48
2019-01-09T14:40:38.037Z,11.58
2019-01-09T14:43:08.394Z,11.56
2019-01-09T14:45:38.726Z,11.74
2019-01-09T14:48:09.155Z,11.23
2019-01-09T14:50:40.078Z,11.44
2019-01-09T14:53:10.473Z,11.57
2019-01-09T14:55:40.864Z,11.55
2019-01-09T14:58:11.155Z,11.40
2019-01-09T15:00:41.560Z,11.75
2019-01-09T15:03:11.968Z,11.70
2019-01-09T15:05:42.871Z,11.59
2019-01-09T15:08:13.154Z,11.56
2019-01-09T15:10:43.807Z,11.80
2019-01-09T15:13:14.208Z,11.47
2019-01-09T15:15:44.480Z,11.22
2019-01-09T15:18:14.892Z,10.84
2019-01-09T15:20:45.594Z,10.53
2019-01-09T15:23:15.870Z,10.71
2019-01-09T15:25:46.296Z,10.74
2019-01-09T15:28:16.574Z,10.82
2019-01-09T15:30:46.976Z,10.47
2019-01-09T15:33:17.789Z,10.26
2019-01-09T15:35:49.665Z,9.99
2019-01-09T15:38:20.151Z,10.43
2019-01-09T15:40:50.934Z,10.31
2019-01-09T15:43:21.794Z,10.62
2019-01-09T15:45:52.118Z,10.58
2019-01-09T15:48:22.419Z,10.35
2019-01-09T15:50:52.833Z,10.09
2019-01-09T15:53:23.569Z,10.34
2019-01-09T15:55:55.076Z,10.10
2019-01-09T15:58:25.345Z,10.44
2019-01-09T16:00:58.116Z,10.20
2019-01-09T16:03:28.865Z,9.95
2019-01-09T16:05:59.375Z,10.46
2019-01-09T16:08:29.715Z,10.52
2019-01-09T16:11:01.162Z,10.48
2019-01-09T16:13:31.931Z,10.17
2019-01-09T16:16:02.256Z,9.95
2019-01-09T16:18:32.564Z,9.37
2019-01-09T16:21:03.005Z,9.36
2019-01-09T16:23:33.727Z,9.88
2019-01-09T16:26:05.167Z,9.74
2019-01-09T16:28:35.546Z,9.70
2019-01-09T16:31:13.537Z,9.88
2019-01-09T16:33:44.199Z,9.71
2019-01-09T16:36:15.902Z,9.86
2019-01-09T16:38:46.229Z,9.90
2019-01-09T16:41:16.532Z,10.05
2019-01-09T16:43:47.994Z,10.21
2019-01-09T16:46:19.131Z,10.34
2019-01-09T16:48:49.582Z,10.56
2019-01-09T16:51:19.945Z,9.96
2019-01-09T16:53:50.250Z,10.06
2019-01-09T16:56:21.202Z,10.15
2019-01-09T16:58:51.783Z,10.31
2019-01-09T17:01:23.195Z,10.51
2019-01-09T17:03:53.512Z,10.41
2019-01-09T17:06:24.321Z,10.16
2019-01-09T17:08:54.596Z,9.93
2019-01-09T17:11:24.948Z,10.20
2019-01-09T17:13:55.376Z,10.02
2019-01-09T17:16:26.682Z,10.12
2019-01-09T17:18:57.023Z,10.16
2019-01-09T17:21:27.630Z,9.85
2019-01-09T17:23:57.888Z,10.06
2019-01-09T17:26:28.795Z,10.41
2019-01-09T17:28:59.119Z,10.74
2019-01-09T17:31:29.412Z,10.18
2019-01-09T17:34:00.750Z,10.37
2019-01-09T17:36:32.318Z,10.04
2019-01-09T17:39:02.720Z,9.91
2019-01-09T17:41:33.035Z,10.55
2019-01-09T17:44:03.331Z,9.65
2019-01-09T17:46:34.122Z,9.65
2019-01-09T17:49:05.434Z,9.97
2019-01-09T17:51:35.703Z,10.23
2019-01-09T17:54:06.210Z,10.23
2019-01-09T17:56:38.114Z,9.67
2019-01-09T17:59:08.526Z,9.76
2019-01-09T18:01:38.820Z,9.77
2019-01-09T18:04:10.175Z,10.10
2019-01-09T18:06:40.956Z,10.31
2019-01-09T18:09:11.467Z,10.30
2019-01-09T18:11:41.831Z,10.20
2019-01-09T18:14:12.544Z,10.29
2019-01-09T18:16:43.366Z,10.58
2019-01-09T18:19:14.916Z,10.49
2019-01-09T18:21:45.242Z,10.19
2019-01-09T18:24:15.642Z,10.22
2019-01-09T18:26:46.390Z,10.32
2019-01-09T18:29:16.736Z,10.26
2019-01-09T18:32:14.129Z,10.15
2019-01-09T18:34:53.519Z,9.99
2019-01-09T18:37:53.631Z,10.02
2019-01-09T18:41:00.510Z,10.11
2019-01-09T18:43:55.806Z,10.16
2019-01-09T18:47:10.466Z,10.49
2019-01-09T18:50:08.904Z,10.54
2019-01-09T18:52:50.814Z,10.42
2019-01-09T18:55:23.525Z,10.59
2019-01-09T18:57:53.812Z,10.33
2019-01-09T19:00:24.838Z,10.24
2019-01-09T19:02:55.654Z,10.27
2019-01-09T19:05:26.016Z,9.98
2019-01-09T19:07:56.298Z,9.91
2019-01-09T19:10:27.795Z,10.02
2019-01-09T19:12:59.555Z,10.26
2019-01-09T19:15:30.962Z,10.23
2019-01-09T19:18:01.235Z,10.17
2019-01-09T19:20:31.529Z,10.39
2019-01-09T19:23:03.586Z,10.06
2019-01-09T19:25:34.422Z,10.56
2019-01-09T19:28:04.912Z,9.90
2019-01-09T19:30:35.469Z,10.35
2019-01-09T19:33:06.097Z,10.39
2019-01-09T19:35:37.766Z,10.34
2019-01-09T19:38:09.626Z,10.62
2019-01-09T19:40:39.881Z,10.10
2019-01-09T19:43:10.301Z,10.53
2019-01-09T19:45:41.021Z,10.30
2019-01-09T19:48:11.344Z,10.15
2019-01-09T19:50:42.610Z,10.53
2019-01-09T19:53:13.575Z,10.92
2019-01-09T19:55:45.695Z,10.74
2019-01-09T19:58:17.730Z,10.39
2019-01-09T20:00:48.160Z,10.76
2019-01-09T20:03:18.468Z,10.43
2019-01-09T20:05:49.304Z,10.59
2019-01-09T20:08:19.726Z,9.77
2019-01-09T20:10:50.002Z,10.12
2019-01-09T20:13:21.758Z,9.46
2019-01-09T20:15:52.720Z,9.61
2019-01-09T20:18:23.159Z,9.92
2019-01-09T20:20:53.503Z,9.80
2019-01-09T20:23:23.862Z,9.78
2019-01-09T20:25:54.648Z,9.79
2019-01-09T20:28:25.786Z,9.97
2019-01-09T20:30:56.567Z,9.98
2019-01-09T20:33:27.023Z,9.20
2019-01-09T20:35:57.921Z,9.60
2019-01-09T20:38:29.499Z,9.98
2019-01-09T20:41:00.893Z,9.55
2019-01-09T20:43:32.507Z,9.78
2019-01-09T20:46:03.371Z,9.85
2019-01-09T20:48:34.036Z,9.85
2019-01-09T20:51:04.582Z,10.06
2019-01-09T20:53:34.961Z,10.02
2019-01-09T20:56:05.895Z,9.87
2019-01-09T20:58:38.032Z,10.23
2019-01-09T21:01:08.858Z,10.31
2019-01-09T21:03:39.953Z,9.60
2019-01-09T21:06:11.164Z,10.04
2019-01-09T21:08:43.442Z,10.21
2019-01-09T21:11:13.779Z,10.25
2019-01-09T21:13:44.998Z,10.41
2019-01-09T21:16:16.130Z,10.45
2019-01-09T21:18:46.903Z,10.67
2019-01-09T21:21:17.182Z,10.39
2019-01-09T21:23:47.455Z,10.38
2019-01-09T21:26:17.779Z,10.54
2019-01-09T21:28:48.572Z,10.56
2019-01-09T21:31:18.922Z,10.31
2019-01-09T21:33:49.245Z,10.73
2019-01-09T21:36:19.835Z,10.54
2019-01-09T21:38:52.131Z,10.49
2019-01-09T21:41:22.480Z,9.83
2019-01-09T21:43:53.132Z,10.23
2019-01-09T21:46:24.828Z,10.43
2019-01-09T21:48:56.942Z,10.38
2019-01-09T21:51:27.265Z,10.16
2019-01-09T21:53:57.540Z,9.69
2019-01-09T21:56:27.956Z,9.68
2019-01-09T21:59:00.394Z,9.69
2019-01-09T22:01:30.773Z,9.60
2019-01-09T22:04:01.147Z,10.09
2019-01-09T22:06:31.425Z,9.83
2019-01-09T22:09:02.209Z,9.69
2019-01-09T22:11:32.927Z,10.04
2019-01-09T22:14:04.314Z,9.65
2019-01-09T22:16:34.627Z,10.14
2019-01-09T22:19:11.958Z,9.95
2019-01-09T22:21:37.497Z,9.92
2019-01-09T22:24:07.870Z,9.48
2019-01-09T22:26:38.335Z,9.51
2019-01-09T22:29:09.426Z,9.50
2019-01-09T22:31:39.696Z,9.78
2019-01-09T22:34:11.853Z,9.53
2019-01-09T22:36:42.127Z,9.75
2019-01-09T22:39:14.045Z,9.55
2019-01-09T22:41:44.351Z,9.63
2019-01-09T22:44:14.658Z,9.77
2019-01-09T22:46:45.002Z,9.83
2019-01-09T22:49:16.033Z,9.61
2019-01-09T22:51:46.864Z,9.83
2019-01-09T22:54:17.891Z,9.68
2019-01-09T22:56:48.170Z,9.50
2019-01-09T22:59:18.954Z,9.63
2019-01-09T23:01:49.813Z,9.48
2019-01-09T23:04:20.987Z,9.44
2019-01-09T23:06:51.746Z,8.95
2019-01-09T23:09:22.545Z,9.16
2019-01-09T23:11:53.040Z,9.28
2019-01-09T23:14:23.281Z,9.01
2019-01-09T23:16:53.550Z,9.22
2019-01-09T23:19:23.941Z,9.20
2019-01-09T23:21:54.644Z,9.12
2019-01-09T23:24:26.038Z,8.61
2019-01-09T23:26:56.276Z,9.04
2019-01-09T23:29:26.605Z,9.24
2019-01-09T23:31:57.113Z,9.28
2019-01-09T23:34:27.806Z,9.54
2019-01-09T23:36:58.196Z,9.04
2019-01-09T23:39:30.100Z,9.31
2019-01-09T23:42:00.554Z,9.82
2019-01-09T23:44:31.366Z,9.87
2019-01-09T23:47:01.662Z,9.88
2019-01-09T23:49:31.961Z,9.66
2019-01-09T23:52:02.374Z,9.67
2019-01-09T23:54:33.158Z,9.48
2019-01-09T23:57:03.467Z,9.27
2019-01-09T23:59:33.957Z,9.48
